Time;durP1;ratioP1;P1;durP2;ratioP2;P2;SDS_P1;SDS_P2;PMS_P1;PMS_P2;Temp;Humidity;BMP_temperature;BMP_pressure;BME280_temperature;BME280_humidity;BME280_pressure;Samples;Min_cycle;Max_cycle;Signal;HPM_P1;HPM_P2
2022/08/24 00:02:00;;;;;;;9.80;4.70;;;;;;;22.58;68.88;100454.74;104234;1283;95239;-83
2022/08/24 00:04:29;;;;;;;8.20;5.20;;;;;;;22.55;68.43;100451.71;104011;1282;141178;-83
2022/08/24 00:07:00;;;;;;;9.70;4.60;;;;;;;22.49;68.82;100457.05;104109;1282;109791;-83
2022/08/24 00:09:31;;;;;;;10.90;4.60;;;;;;;22.33;69.14;100457.29;104216;1282;99851;-83
2022/08/24 00:12:00;;;;;;;8.80;5.10;;;;;;;22.28;69.46;100462.08;104100;1282;141574;-83
2022/08/24 00:14:28;;;;;;;9.80;5.20;;;;;;;22.31;69.18;100459.42;104010;1281;95267;-83
2022/08/24 00:16:57;;;;;;;8.90;5.10;;;;;;;22.33;68.98;100461.45;103936;1282;142107;-83
2022/08/24 00:19:26;;;;;;;11.10;5.20;;;;;;;22.32;69.18;100460.84;104143;1282;110271;-84
2022/08/24 00:21:54;;;;;;;9.90;5.00;;;;;;;22.31;69.19;100460.02;104083;1282;140776;-83
2022/08/24 00:24:22;;;;;;;13.50;5.10;;;;;;;22.26;69.21;100464.51;104111;1282;107859;-83
2022/08/24 00:26:51;;;;;;;10.40;5.30;;;;;;;22.28;69.20;100464.58;104118;1282;95291;-83
2022/08/24 00:29:20;;;;;;;9.30;5.20;;;;;;;22.31;69.09;100459.98;103996;1282;144673;-83
2022/08/24 00:31:48;;;;;;;10.40;4.80;;;;;;;22.34;68.84;100461.23;104105;1284;109783;-83
2022/08/24 00:34:17;;;;;;;9.20;4.60;;;;;;;22.37;68.64;100462.84;104009;1282;140165;-83
2022/08/24 00:36:45;;;;;;;9.70;5.20;;;;;;;22.36;68.63;100462.16;104071;1282;109495;-83
2022/08/24 00:39:13;;;;;;;10.70;5.30;;;;;;;22.30;68.76;100462.07;104087;1282;95581;-83
2022/08/24 00:41:43;;;;;;;10.00;4.90;;;;;;;22.29;68.82;100464.29;103980;1282;141845;-83
2022/08/24 00:44:13;;;;;;;9.00;4.80;;;;;;;22.30;68.80;100465.67;104111;1282;110762;-83
2022/08/24 00:46:43;;;;;;;9.40;5.30;;;;;;;22.27;69.18;100465.88;104298;1282;142152;-83
2022/08/24 00:49:34;;;;;;;10.90;5.20;;;;;;;22.22;68.98;100466.84;104184;1282;109707;-83
2022/08/24 00:52:13;;;;;;;8.80;4.80;;;;;;;22.19;69.11;100461.55;103956;1282;141188;-83
2022/08/24 00:54:45;;;;;;;8.80;5.50;;;;;;;22.20;69.17;100456.59;104067;1282;95033;-82
2022/08/24 00:57:18;;;;;;;8.50;5.00;;;;;;;22.22;68.95;100452.70;104026;1282;108989;-82
2022/08/24 00:59:56;;;;;;;10.90;5.20;;;;;;;22.24;68.72;100446.08;104047;1282;140319;-82
2022/08/24 01:02:30;;;;;;;9.90;5.20;;;;;;;22.23;68.58;100448.47;104163;1282;109400;-83
2022/08/24 01:05:01;;;;;;;10.00;5.50;;;;;;;22.23;68.89;100453.15;104035;1282;139575;-83
2022/08/24 01:07:32;;;;;;;10.00;5.30;;;;;;;22.21;68.98;100450.09;104202;1282;95249;-83
2022/08/24 01:10:15;;;;;;;10.60;5.40;;;;;;;22.18;68.99;100458.59;104026;1281;139530;-82
2022/08/24 01:12:47;;;;;;;9.50;5.40;;;;;;;22.13;69.23;100458.95;103990;1282;99298;-82
2022/08/24 01:15:29;;;;;;;8.60;4.70;;;;;;;22.11;69.19;100455.16;104048;1282;109616;-82
2022/08/24 01:20:52;;;;;;;9.80;5.30;;;;;;;22.13;69.13;100460.91;103998;1282;96638;-83
2022/08/24 01:23:41;;;;;;;10.10;5.10;;;;;;;22.11;69.06;100461.30;104082;1282;145193;-83
2022/08/24 01:26:14;;;;;;;10.00;5.30;;;;;;;22.05;69.23;100460.82;104239;1282;100206;-83
2022/08/24 01:28:46;;;;;;;9.80;5.30;;;;;;;22.04;69.31;100462.50;104055;1281;139634;-83
2022/08/24 01:31:19;;;;;;;10.80;6.00;;;;;;;22.07;69.08;100462.11;104123;1282;95636;-83
2022/08/24 01:33:50;;;;;;;10.40;5.30;;;;;;;22.05;69.02;100465.69;104049;1282;140496;-83
2022/08/24 01:36:32;;;;;;;10.40;5.30;;;;;;;22.01;69.24;100468.70;104305;1282;109845;-84
2022/08/24 01:39:09;;;;;;;9.60;5.30;;;;;;;21.91;69.68;100467.66;104077;1284;100295;-83
2022/08/24 01:41:37;;;;;;;9.70;5.40;;;;;;;21.91;69.48;100472.52;104057;1282;140924;-83
2022/08/24 01:44:06;;;;;;;11.50;5.50;;;;;;;21.93;69.41;100474.94;104222;1282;95774;-83
2022/08/24 01:46:34;;;;;;;9.90;5.20;;;;;;;21.93;69.52;100479.39;103944;1282;139415;-83
2022/08/24 01:49:04;;;;;;;10.10;5.40;;;;;;;21.94;69.55;100480.81;104044;1282;110871;-83
2022/08/24 01:51:32;;;;;;;9.70;5.40;;;;;;;21.94;69.51;100485.11;104015;1282;100150;-83
2022/08/24 01:54:02;;;;;;;11.00;5.50;;;;;;;21.95;69.37;100490.30;103984;1282;139176;-83
2022/08/24 01:56:32;;;;;;;9.50;5.60;;;;;;;21.79;69.81;100497.45;104062;1282;95252;-83
2022/08/24 01:59:00;;;;;;;9.80;5.40;;;;;;;21.63;70.36;100507.92;104061;1282;140430;-83
2022/08/24 02:01:34;;;;;;;9.00;5.30;;;;;;;21.67;70.48;100504.73;104105;1282;109890;-82
2022/08/24 02:04:04;;;;;;;10.50;5.40;;;;;;;21.73;70.15;100499.85;104028;1282;141223;-82
2022/08/24 02:06:36;;;;;;;8.60;5.50;;;;;;;21.73;69.98;100502.55;104086;1282;109363;-83
2022/08/24 02:09:06;;;;;;;8.30;4.70;;;;;;;21.64;70.27;100505.30;104018;1282;95819;-82
2022/08/24 02:11:36;;;;;;;9.10;5.30;;;;;;;21.57;70.75;100510.91;103908;1282;140002;-82
2022/08/24 02:14:04;;;;;;;8.20;5.50;;;;;;;21.52;70.84;100513.04;104149;1284;110266;-83
2022/08/24 02:16:32;;;;;;;8.40;5.10;;;;;;;21.56;70.48;100517.84;104019;1282;141443;-82
2022/08/24 02:19:00;;;;;;;10.30;5.20;;;;;;;21.54;70.83;100521.00;104237;1284;109700;-84
2022/08/24 02:21:28;;;;;;;10.40;5.10;;;;;;;21.49;70.63;100521.49;104028;1284;95331;-82
2022/08/24 02:23:56;;;;;;;9.70;4.70;;;;;;;21.54;70.62;100518.86;104156;1282;139521;-83
2022/08/24 02:26:24;;;;;;;9.00;5.40;;;;;;;21.56;70.78;100516.59;104164;1282;110180;-83
2022/08/24 02:28:58;;;;;;;9.80;5.80;;;;;;;21.46;70.75;100511.45;104029;1282;140716;-81
2022/08/24 02:31:31;;;;;;;10.40;5.30;;;;;;;21.30;71.33;100509.33;104169;1282;108898;-82
2022/08/24 02:33:59;;;;;;;8.90;5.10;;;;;;;21.27;71.57;100512.23;104026;1282;139812;-83
2022/08/24 02:36:27;;;;;;;10.20;5.60;;;;;;;21.29;71.66;100518.77;103958;1284;95232;-82
2022/08/24 02:38:58;;;;;;;10.20;5.60;;;;;;;21.31;71.46;100519.52;104194;1282;109744;-82
2022/08/24 02:41:26;;;;;;;10.40;5.70;;;;;;;21.33;71.48;100521.23;104028;1282;141825;-82
2022/08/24 02:43:55;;;;;;;8.40;4.90;;;;;;;21.31;71.64;100516.45;104115;1282;108308;-82
2022/08/24 02:46:25;;;;;;;8.20;5.10;;;;;;;21.34;71.50;100518.39;103844;1282;142108;-83
2022/08/24 02:48:57;;;;;;;9.10;5.40;;;;;;;21.38;71.48;100514.17;104061;1282;95603;-82
2022/08/24 02:51:44;;;;;;;10.20;5.20;;;;;;;21.43;71.00;100511.65;104136;1281;110314;-83
2022/08/24 02:54:19;;;;;;;9.90;5.70;;;;;;;21.45;71.04;100513.16;104112;1282;99902;-83
2022/08/24 02:56:50;;;;;;;9.40;5.60;;;;;;;21.48;70.88;100514.02;104136;1282;108334;-83
2022/08/24 02:59:18;;;;;;;9.10;5.20;;;;;;;21.51;70.97;100511.83;103929;1282;141804;-83
2022/08/24 03:01:47;;;;;;;10.30;5.80;;;;;;;21.52;71.04;100507.98;104085;1282;95319;-83
2022/08/24 03:04:18;;;;;;;10.40;5.80;;;;;;;21.54;70.70;100507.09;103884;1282;139421;-83
2022/08/24 03:06:46;;;;;;;8.70;5.30;;;;;;;21.57;70.68;100510.02;104139;1282;99968;-83
2022/08/24 03:09:14;;;;;;;11.10;5.90;;;;;;;21.62;70.80;100506.02;104092;1282;109508;-83
2022/08/24 03:11:42;;;;;;;9.90;6.00;;;;;;;21.65;70.72;100506.35;104079;1282;139254;-83
2022/08/24 03:14:13;;;;;;;11.40;5.90;;;;;;;21.63;70.78;100511.96;104068;1282;95588;-83
2022/08/24 03:16:41;;;;;;;9.50;5.80;;;;;;;21.52;71.31;100519.04;104004;1282;140934;-83
2022/08/24 03:19:09;;;;;;;10.10;5.70;;;;;;;21.33;71.82;100521.02;103985;1282;99909;-83
2022/08/24 03:21:37;;;;;;;9.70;5.50;;;;;;;21.30;72.28;100519.45;103999;1282;108343;-83
2022/08/24 03:24:05;;;;;;;9.80;5.60;;;;;;;21.36;72.04;100513.59;103905;1284;139436;-83
2022/08/24 03:26:33;;;;;;;10.60;5.80;;;;;;;21.41;71.97;100514.84;104141;1284;95367;-83
2022/08/24 03:29:01;;;;;;;10.50;5.80;;;;;;;21.47;71.89;100509.02;103939;1284;141353;-83
2022/08/24 03:31:30;;;;;;;9.00;5.10;;;;;;;21.55;71.76;100515.21;104127;1284;99953;-83
2022/08/24 03:33:58;;;;;;;10.30;5.30;;;;;;;21.50;71.73;100521.14;103911;1284;141885;-82
2022/08/24 03:36:27;;;;;;;11.20;5.80;;;;;;;21.37;72.12;100531.19;104306;1284;95280;-82
2022/08/24 03:38:55;;;;;;;10.40;5.50;;;;;;;21.34;72.37;100527.25;104194;1284;95299;-82
2022/08/24 03:41:23;;;;;;;14.00;5.80;;;;;;;21.35;72.45;100528.98;104161;1284;141994;-82
2022/08/24 03:43:51;;;;;;;10.90;5.70;;;;;;;21.43;72.16;100529.74;104270;1284;100175;-83
2022/08/24 03:46:25;;;;;;;12.00;5.80;;;;;;;21.52;71.97;100527.14;104145;1284;142335;-83
2022/08/24 03:48:54;;;;;;;10.30;6.00;;;;;;;21.59;71.41;100523.77;104012;1284;95261;-84
2022/08/24 03:51:25;;;;;;;10.70;5.80;;;;;;;21.63;71.49;100524.55;104125;1284;95288;-83
2022/08/24 03:53:54;;;;;;;10.40;5.80;;;;;;;21.69;71.44;100527.91;104099;1284;141168;-83
2022/08/24 03:56:24;;;;;;;10.30;6.00;;;;;;;21.69;71.34;100531.72;104342;1284;99569;-83
2022/08/24 03:58:53;;;;;;;10.40;5.50;;;;;;;21.65;71.80;100533.60;104050;1284;140656;-83
2022/08/24 04:01:22;;;;;;;10.00;5.40;;;;;;;21.63;71.88;100537.97;104251;1284;95671;-84
2022/08/24 04:03:52;;;;;;;8.60;5.10;;;;;;;21.66;71.95;100542.63;103939;1284;140168;-83
2022/08/24 04:06:21;;;;;;;9.40;5.60;;;;;;;21.65;72.00;100543.60;104001;1284;108992;-83
2022/08/24 04:08:51;;;;;;;10.00;5.70;;;;;;;21.62;72.19;100544.84;104070;1284;100067;-83
2022/08/24 04:11:24;;;;;;;10.60;6.60;;;;;;;21.68;71.75;100540.46;104262;1284;140095;-83
2022/08/24 04:13:57;;;;;;;12.40;6.20;;;;;;;21.76;71.74;100545.02;104114;1284;95168;-82
2022/08/24 04:16:26;;;;;;;11.30;6.20;;;;;;;21.81;71.81;100548.08;104065;1284;141581;-83
2022/08/24 04:19:03;;;;;;;10.00;6.10;;;;;;;21.85;71.61;100548.98;104149;1284;110681;-83
2022/08/24 04:21:35;;;;;;;10.10;6.50;;;;;;;21.90;71.29;100550.52;104203;1283;100358;-83
2022/08/24 04:24:07;;;;;;;12.10;7.00;;;;;;;21.92;71.15;100553.11;104181;1282;140807;-83
2022/08/24 04:26:38;;;;;;;11.00;6.70;;;;;;;21.92;71.22;100553.24;104287;1282;95235;-83
2022/08/24 04:29:16;;;;;;;11.10;6.60;;;;;;;21.95;71.04;100557.02;104457;1282;140650;-83
2022/08/24 04:31:48;;;;;;;12.30;7.30;;;;;;;21.96;71.09;100561.09;104377;1282;111051;-82
2022/08/24 04:34:17;;;;;;;10.80;7.10;;;;;;;21.97;71.12;100560.50;104308;1281;141936;-83
2022/08/24 04:36:45;;;;;;;11.10;6.80;;;;;;;21.97;71.07;100560.14;104262;1282;107843;-83
2022/08/24 04:39:13;;;;;;;10.30;6.50;;;;;;;21.98;71.03;100563.65;104175;1282;95643;-82
2022/08/24 04:42:04;;;;;;;13.90;7.00;;;;;;;21.99;70.98;100566.48;104162;1282;140350;-83
2022/08/24 04:44:36;;;;;;;11.30;7.10;;;;;;;21.99;71.15;100565.78;104168;1282;109523;-83
2022/08/24 04:47:07;;;;;;;11.50;7.20;;;;;;;21.96;71.24;100573.01;104212;1282;139840;-82
2022/08/24 04:49:37;;;;;;;11.00;6.60;;;;;;;21.99;71.02;100575.66;104428;1282;109318;-83
2022/08/24 04:52:07;;;;;;;10.30;6.80;;;;;;;22.07;71.06;100576.79;104266;1282;140981;-83
2022/08/24 04:54:35;;;;;;;11.20;6.50;;;;;;;22.15;70.98;100581.45;104452;1282;95448;-83
2022/08/24 04:57:11;;;;;;;11.50;7.00;;;;;;;22.21;70.68;100582.10;104428;1281;108918;-83
2022/08/24 04:59:45;;;;;;;11.70;6.70;;;;;;;22.23;70.52;100584.47;104066;1283;139208;-83
2022/08/24 05:02:13;;;;;;;11.20;6.50;;;;;;;22.24;70.32;100588.55;104302;1282;109398;-83
2022/08/24 05:04:41;;;;;;;13.10;6.80;;;;;;;22.22;70.51;100594.14;104113;1282;141671;-83
2022/08/24 05:07:09;;;;;;;12.40;6.40;;;;;;;22.17;70.65;100593.94;104262;1282;95187;-83
2022/08/24 05:09:39;;;;;;;12.50;7.00;;;;;;;22.19;70.69;100589.48;104323;1282;108698;-84
2022/08/24 05:12:10;;;;;;;11.90;7.00;;;;;;;22.25;70.42;100582.58;104301;1282;100418;-83
2022/08/24 05:14:41;;;;;;;10.60;6.60;;;;;;;22.27;70.34;100582.20;104249;1282;107947;-84
2022/08/24 05:17:09;;;;;;;15.40;7.30;;;;;;;22.31;70.32;100579.91;104104;1282;142298;-83
2022/08/24 05:19:37;;;;;;;11.80;7.50;;;;;;;22.35;70.42;100580.77;104289;1283;95582;-83
2022/08/24 05:22:05;;;;;;;13.10;7.40;;;;;;;22.35;70.32;100578.40;104177;1282;141530;-82
2022/08/24 05:24:33;;;;;;;11.40;7.10;;;;;;;22.35;70.44;100577.49;104146;1283;100100;-83
2022/08/24 05:27:02;;;;;;;11.90;6.70;;;;;;;22.36;70.49;100575.44;104307;1282;108419;-83
2022/08/24 05:29:33;;;;;;;11.10;6.80;;;;;;;22.36;70.37;100574.70;104179;1282;143354;-83
2022/08/24 05:32:01;;;;;;;12.10;7.10;;;;;;;22.33;70.35;100572.89;104846;1282;95603;-83
2022/08/24 05:34:31;;;;;;;10.90;6.80;;;;;;;22.33;70.39;100579.20;104064;1281;141480;-83
2022/08/24 05:36:59;;;;;;;12.10;6.70;;;;;;;22.37;70.61;100585.11;104046;1284;98909;-82
2022/08/24 05:39:36;;;;;;;11.60;6.50;;;;;;;22.40;70.32;100585.62;104178;1282;108406;-83
2022/08/24 05:42:07;;;;;;;15.60;7.00;;;;;;;22.44;70.15;100583.52;104184;1282;138896;-83
2022/08/24 05:44:37;;;;;;;16.00;7.60;;;;;;;22.49;70.15;100582.63;104135;1284;95153;-83
2022/08/24 05:47:05;;;;;;;14.60;6.80;;;;;;;22.55;69.98;100578.73;104007;1282;140857;-82
2022/08/24 05:49:33;;;;;;;18.00;7.80;;;;;;;22.62;69.77;100578.97;104232;1282;99861;-82
2022/08/24 05:52:08;;;;;;;16.00;7.10;;;;;;;22.66;69.59;100574.54;104014;1282;140536;-83
2022/08/24 05:54:36;;;;;;;18.30;7.10;;;;;;;22.67;69.71;100574.44;104183;1282;95658;-83
2022/08/24 05:57:05;;;;;;;20.50;7.70;;;;;;;22.70;69.68;100571.33;104112;1282;95597;-83
2022/08/24 05:59:41;;;;;;;19.90;7.20;;;;;;;22.63;69.88;100577.08;104114;1282;140949;-84
2022/08/24 06:02:14;;;;;;;17.70;7.70;;;;;;;22.46;70.45;100580.66;104140;1284;99831;-83
2022/08/24 06:04:42;;;;;;;20.30;7.40;;;;;;;22.50;70.59;100570.59;104064;1282;138965;-83
2022/08/24 06:07:11;;;;;;;19.00;7.00;;;;;;;22.61;70.36;100565.48;104077;1284;95888;-83
2022/08/24 06:09:41;;;;;;;19.50;7.10;;;;;;;22.70;70.33;100566.77;104071;1282;96135;-84
2022/08/24 06:12:11;;;;;;;31.70;8.40;;;;;;;22.76;70.20;100563.98;104255;1282;109857;-83
2022/08/24 06:14:44;;;;;;;31.60;8.50;;;;;;;22.84;69.75;100555.39;104417;1282;99539;-84
2022/08/24 06:17:13;;;;;;;29.90;8.00;;;;;;;22.91;69.42;100552.55;104284;1284;140027;-84
2022/08/24 06:19:42;;;;;;;25.50;8.00;;;;;;;22.98;69.13;100551.83;104180;1282;95258;-84
2022/08/24 06:22:10;;;;;;;26.10;8.00;;;;;;;23.09;69.02;100555.39;104022;1282;141128;-84
2022/08/24 06:27:27;;;;;;;21.70;7.60;;;;;;;23.17;69.11;100560.17;104386;1282;99831;-83
2022/08/24 06:29:59;;;;;;;21.50;6.80;;;;;;;22.99;68.94;100560.83;104023;1282;139812;-83
2022/08/24 06:32:42;;;;;;;21.30;7.10;;;;;;;22.87;69.88;100573.10;104134;1284;95191;-82
2022/08/24 06:35:18;;;;;;;26.90;7.20;;;;;;;22.91;70.38;100572.64;103973;1284;142453;-83
2022/08/24 06:37:45;;;;;;;20.60;7.50;;;;;;;23.10;69.18;100567.20;104266;1282;110666;-83
2022/08/24 06:40:13;;;;;;;21.30;7.70;;;;;;;23.23;68.63;100565.90;103980;1282;139471;-83
2022/08/24 06:42:42;;;;;;;16.10;6.90;;;;;;;23.36;68.43;100570.14;104183;1282;110368;-83
2022/08/24 06:45:21;;;;;;;23.90;7.40;;;;;;;23.46;68.07;100574.48;103985;1284;95579;-83
2022/08/24 06:47:49;;;;;;;20.70;7.20;;;;;;;23.49;68.01;100574.39;103952;1284;138472;-82
2022/08/24 06:50:17;;;;;;;16.90;6.60;;;;;;;23.48;67.64;100583.04;103979;1284;107304;-82
2022/08/24 06:52:48;;;;;;;22.00;7.10;;;;;;;23.48;67.94;100589.33;104075;1283;141270;-83
2022/08/24 06:55:16;;;;;;;17.40;6.50;;;;;;;23.58;68.10;100587.83;103880;1284;109984;-83
2022/08/24 06:57:44;;;;;;;13.20;6.20;;;;;;;23.79;67.85;100589.30;103843;1284;141747;-82
2022/08/24 07:00:19;;;;;;;17.60;7.30;;;;;;;23.89;67.42;100586.89;104025;1284;95184;-83
2022/08/24 07:02:47;;;;;;;13.10;6.20;;;;;;;23.90;67.32;100591.02;103988;1284;108566;-83
2022/08/24 07:05:17;;;;;;;15.10;6.60;;;;;;;23.86;67.35;100593.84;103985;1284;141723;-83
2022/08/24 07:08:06;;;;;;;22.00;7.20;;;;;;;23.92;67.59;100601.38;104020;1284;107804;-82
2022/08/24 07:10:34;;;;;;;12.60;6.10;;;;;;;24.02;67.88;100598.55;103920;1284;140513;-83
2022/08/24 07:13:02;;;;;;;12.60;6.20;;;;;;;24.17;67.85;100599.92;104141;1282;95267;-83
2022/08/24 07:15:31;;;;;;;16.80;6.00;;;;;;;24.25;67.30;100601.99;104107;1282;110264;-83
2022/08/24 07:18:10;;;;;;;15.40;6.00;;;;;;;24.29;67.31;100606.80;103948;1284;139035;-84
2022/08/24 07:20:41;;;;;;;14.30;6.20;;;;;;;24.33;66.67;100611.84;104180;1282;109420;-84
2022/08/24 07:23:21;;;;;;;14.00;6.10;;;;;;;24.44;66.94;100617.02;103896;1284;140871;-84
2022/08/24 07:26:11;;;;;;;15.10;5.80;;;;;;;24.59;66.13;100619.23;104047;1284;95682;-83
2022/08/24 07:29:04;;;;;;;16.20;5.90;;;;;;;24.79;65.46;100624.10;103881;1284;139892;-84
2022/08/24 07:31:41;;;;;;;16.00;6.30;;;;;;;24.93;65.15;100620.69;104066;1284;98945;-83
2022/08/24 07:34:14;;;;;;;17.90;6.90;;;;;;;24.89;65.01;100628.61;104156;1284;141057;-84
2022/08/24 07:36:43;;;;;;;16.30;6.50;;;;;;;24.96;64.87;100634.21;104076;1284;95155;-84
2022/08/24 07:39:11;;;;;;;20.30;6.30;;;;;;;25.03;65.00;100637.94;104223;1284;95335;-85
2022/08/24 07:41:42;;;;;;;14.10;5.90;;;;;;;25.05;64.57;100636.87;103914;1284;140613;-82
2022/08/24 07:44:31;;;;;;;18.70;5.90;;;;;;;25.08;64.70;100636.64;104269;1284;98417;-83
2022/08/24 07:46:58;;;;;;;20.30;6.20;;;;;;;25.14;64.87;100635.95;104326;1284;142769;-83
2022/08/24 07:49:48;;;;;;;16.60;5.70;;;;;;;25.28;64.27;100638.23;104089;1284;96222;-85
2022/08/24 07:52:16;;;;;;;16.10;5.50;;;;;;;25.40;64.22;100633.11;103970;1284;140602;-84
2022/08/24 07:54:44;;;;;;;16.10;5.60;;;;;;;25.54;63.75;100631.57;104035;1284;110188;-84
2022/08/24 07:57:12;;;;;;;17.00;5.60;;;;;;;25.60;63.76;100630.08;104132;1284;99050;-84
2022/08/24 07:59:41;;;;;;;17.40;5.90;;;;;;;25.60;62.97;100626.52;103941;1283;140924;-83
2022/08/24 08:02:10;;;;;;;15.70;5.30;;;;;;;25.64;63.43;100622.48;104029;1284;95337;-84
2022/08/24 08:04:40;;;;;;;16.50;5.90;;;;;;;25.75;63.55;100620.65;104124;1284;140320;-84
2022/08/24 08:07:08;;;;;;;20.20;6.40;;;;;;;25.85;63.24;100617.77;103980;1284;110163;-83
2022/08/24 08:09:38;;;;;;;17.90;5.80;;;;;;;25.91;62.86;100619.24;104058;1284;98341;-83
2022/08/24 08:12:08;;;;;;;15.30;5.60;;;;;;;25.98;62.47;100614.31;104326;1284;140201;-85
2022/08/24 08:14:37;;;;;;;21.60;5.90;;;;;;;26.08;62.33;100614.73;104561;1284;95788;-85
2022/08/24 08:17:06;;;;;;;16.20;6.00;;;;;;;26.17;62.25;100617.16;104097;1284;141004;-83
2022/08/24 08:19:34;;;;;;;19.20;5.70;;;;;;;26.27;61.79;100620.84;104029;1284;109924;-84
2022/08/24 08:25:13;;;;;;;15.20;6.00;;;;;;;26.57;61.19;100634.40;104740;1283;109412;-85
2022/08/24 08:27:41;;;;;;;15.50;5.80;;;;;;;26.67;60.86;100638.26;104809;1284;95182;-84
2022/08/24 08:30:13;;;;;;;14.70;5.90;;;;;;;26.76;60.82;100634.66;104227;1284;95337;-82
2022/08/24 08:32:42;;;;;;;15.60;6.20;;;;;;;26.83;60.42;100636.41;104755;1284;108736;-83
2022/08/24 08:35:11;;;;;;;18.30;5.70;;;;;;;26.90;60.38;100642.73;104278;1283;139326;-83
2022/08/24 08:37:41;;;;;;;20.20;6.70;;;;;;;26.96;59.82;100648.19;104333;1283;109548;-84
2022/08/24 08:40:34;;;;;;;21.70;6.60;;;;;;;27.01;59.66;100646.63;104339;1284;140141;-85
2022/08/24 08:43:30;;;;;;;17.80;6.60;;;;;;;27.08;59.02;100651.06;104933;1283;95190;-84
2022/08/24 08:46:17;;;;;;;17.30;6.60;;;;;;;27.12;59.53;100656.21;104932;1284;141574;-84
2022/08/24 08:49:20;;;;;;;16.40;6.00;;;;;;;27.14;59.53;100656.90;104352;1283;100460;-84
2022/08/24 08:52:23;;;;;;;17.60;5.80;;;;;;;27.19;59.97;100655.85;104020;1284;141565;-84
2022/08/24 08:55:00;;;;;;;16.70;5.90;;;;;;;27.23;59.54;100659.95;103972;1284;95254;-83
2022/08/24 08:57:50;;;;;;;15.50;5.60;;;;;;;27.20;59.34;100659.80;104121;1284;95626;-86
2022/08/24 09:00:22;;;;;;;16.90;5.80;;;;;;;27.16;59.82;100659.60;104017;1284;108707;-84
2022/08/24 09:03:20;;;;;;;17.70;6.30;;;;;;;27.12;59.97;100662.89;104088;1284;97222;-84
2022/08/24 09:06:43;;;;;;;14.50;6.70;;;;;;;27.10;59.83;100665.45;104047;1284;107780;-83
2022/08/24 09:09:26;;;;;;;13.20;6.90;;;;;;;27.06;60.49;100664.01;103713;1284;95919;-84
2022/08/24 09:12:30;;;;;;;17.60;7.20;;;;;;;27.00;60.64;100659.80;103949;1284;140434;-84
2022/08/24 09:15:33;;;;;;;13.90;6.90;;;;;;;26.93;60.84;100660.51;104037;1284;110306;-84
2022/08/24 09:18:40;;;;;;;14.20;6.90;;;;;;;26.92;61.33;100664.23;104032;1284;139227;-84
2022/08/24 09:21:46;;;;;;;14.30;6.40;;;;;;;27.28;60.76;100668.54;104138;1284;109536;-84
2022/08/24 09:24:36;;;;;;;15.40;6.70;;;;;;;28.02;59.74;100661.17;103674;1288;95280;-85
2022/08/24 09:27:30;;;;;;;15.40;6.20;;;;;;;28.88;57.78;100655.89;103192;1290;95373;-83
2022/08/24 09:30:10;;;;;;;16.40;6.30;;;;;;;29.72;55.46;100656.80;103761;1284;140962;-83
2022/08/24 09:33:04;;;;;;;13.50;6.40;;;;;;;30.43;53.53;100656.91;104126;1282;99641;-85
2022/08/24 09:36:11;;;;;;;15.90;6.20;;;;;;;31.39;51.49;100656.67;104060;1281;141426;-84
2022/08/24 09:39:00;;;;;;;13.40;6.20;;;;;;;32.17;49.39;100656.54;104191;1282;95825;-82
2022/08/24 09:42:13;;;;;;;13.70;6.10;;;;;;;32.66;48.41;100655.95;104081;1282;138438;-85
2022/08/24 09:45:14;;;;;;;18.70;6.00;;;;;;;33.08;46.73;100653.05;104228;1282;109051;-82
2022/08/24 09:48:16;;;;;;;15.50;5.60;;;;;;;33.44;45.25;100658.27;104089;1282;141578;-84
2022/08/24 09:51:09;;;;;;;12.10;5.30;;;;;;;33.56;45.00;100662.46;104253;1282;108896;-83
2022/08/24 09:54:09;;;;;;;14.10;5.40;;;;;;;33.53;44.41;100664.52;104024;1282;139280;-83
2022/08/24 09:56:58;;;;;;;17.20;5.70;;;;;;;33.38;44.69;100668.37;104240;1282;95604;-83
2022/08/24 09:59:54;;;;;;;15.60;5.30;;;;;;;33.74;44.14;100676.16;104061;1282;140932;-84
2022/08/24 10:02:47;;;;;;;15.20;5.10;;;;;;;34.09;43.14;100672.68;103112;1282;1539601;-84
2022/08/24 10:05:42;;;;;;;14.80;5.40;;;;;;;34.14;42.06;100678.13;103930;1282;139480;-85
2022/08/24 10:08:34;;;;;;;14.60;5.50;;;;;;;34.15;42.29;100679.92;104155;1282;95773;-86
2022/08/24 10:11:35;;;;;;;15.90;5.50;;;;;;;34.22;42.52;100677.08;104024;1284;138921;-85
2022/08/24 10:14:29;;;;;;;13.10;5.10;;;;;;;34.30;42.61;100677.56;104043;1284;110214;-84
2022/08/24 10:17:18;;;;;;;14.40;5.10;;;;;;;34.51;41.69;100675.67;104128;1282;141989;-83
2022/08/24 10:20:01;;;;;;;16.00;5.10;;;;;;;34.62;41.88;100671.74;104105;1282;107840;-84
2022/08/24 10:22:57;;;;;;;11.10;5.10;;;;;;;34.78;42.29;100668.04;104089;1282;138625;-83
2022/08/24 10:25:46;;;;;;;12.80;5.20;;;;;;;34.75;41.82;100667.35;104152;1282;95207;-84
2022/08/24 10:28:33;;;;;;;13.50;5.40;;;;;;;34.48;42.18;100665.50;104106;1282;139932;-86
2022/08/24 10:31:06;;;;;;;19.00;5.50;;;;;;;34.19;41.68;100659.73;104153;1282;98369;-83
2022/08/24 10:33:58;;;;;;;17.70;5.00;;;;;;;33.76;42.35;100665.40;104159;1282;110081;-84
2022/08/24 10:36:34;;;;;;;18.80;5.40;;;;;;;33.36;43.04;100662.27;104144;1282;95780;-84
2022/08/24 10:45:32;;;;;;;19.30;5.30;;;;;;;32.24;45.38;100660.14;104022;1284;99277;-85
2022/08/24 10:48:31;;;;;;;18.70;5.90;;;;;;;31.88;45.90;100667.52;103973;1282;140535;-83
2022/08/24 10:51:15;;;;;;;21.20;5.60;;;;;;;31.55;45.95;100665.02;104032;1282;95280;-84
2022/08/24 10:53:51;;;;;;;22.00;5.50;;;;;;;31.10;47.10;100664.54;103991;1282;140049;-83
2022/08/24 10:56:29;;;;;;;26.70;6.00;;;;;;;30.83;47.63;100662.14;104005;1282;111048;-84
2022/08/24 10:59:21;;;;;;;25.70;5.50;;;;;;;30.58;47.57;100663.69;104075;1282;140141;-86
2022/08/24 11:02:06;;;;;;;23.20;5.90;;;;;;;30.28;48.08;100665.20;104096;1282;108866;-85
2022/08/24 11:04:40;;;;;;;24.10;6.00;;;;;;;30.08;49.16;100661.35;104054;1282;139083;-84
2022/08/24 11:07:14;;;;;;;25.00;6.20;;;;;;;29.91;49.48;100661.79;104044;1282;95214;-83
2022/08/24 11:09:52;;;;;;;22.10;5.90;;;;;;;29.73;49.94;100664.13;104048;1282;109655;-83
2022/08/24 11:12:30;;;;;;;24.30;5.90;;;;;;;29.63;50.70;100660.09;104100;1282;99486;-85
2022/08/24 11:15:02;;;;;;;22.80;6.00;;;;;;;29.52;51.16;100663.40;103999;1282;107761;-84
2022/08/24 11:17:33;;;;;;;23.30;6.50;;;;;;;29.36;51.47;100660.09;103931;1282;140645;-86
2022/08/24 11:20:02;;;;;;;25.00;6.40;;;;;;;29.26;51.80;100660.56;104367;1282;95028;-86
2022/08/24 11:22:39;;;;;;;25.10;6.00;;;;;;;29.18;51.80;100655.67;103946;1282;140141;-85
2022/08/24 11:25:36;;;;;;;25.30;6.20;;;;;;;29.07;52.20;100650.35;104072;1282;99688;-85
2022/08/24 11:28:27;;;;;;;19.10;6.20;;;;;;;28.97;52.90;100651.85;103997;1282;139141;-85
2022/08/24 11:30:56;;;;;;;23.40;6.20;;;;;;;28.95;53.61;100654.48;104085;1282;95273;-85
2022/08/24 11:33:31;;;;;;;25.30;5.90;;;;;;;28.88;53.57;100655.17;104033;1282;95692;-85
2022/08/24 11:36:01;;;;;;;20.00;6.20;;;;;;;28.81;53.71;100655.45;103929;1281;142458;-83
2022/08/24 11:38:33;;;;;;;23.80;5.80;;;;;;;28.80;53.91;100654.66;104097;1282;99932;-83
2022/08/24 11:41:29;;;;;;;22.60;6.70;;;;;;;28.77;53.76;100656.48;103937;1284;138941;-84
2022/08/24 11:44:26;;;;;;;24.50;6.80;;;;;;;28.69;54.04;100659.41;103972;1281;95242;-84
2022/08/24 11:47:13;;;;;;;19.80;6.30;;;;;;;28.61;54.67;100656.77;103975;1282;138967;-83
2022/08/24 11:50:16;;;;;;;20.80;5.80;;;;;;;28.51;55.31;100660.04;104054;1282;109667;-83
2022/08/24 11:53:05;;;;;;;20.50;6.40;;;;;;;28.41;56.32;100658.33;104031;1282;139066;-83
2022/08/24 11:55:42;;;;;;;21.60;6.10;;;;;;;28.45;55.84;100657.77;104108;1282;110239;-84
2022/08/24 11:58:42;;;;;;;26.50;6.50;;;;;;;28.47;56.07;100659.75;103950;1282;140799;-84